sensor_id;sensor_type;location;lat;lon;timestamp;P1;durP1;ratioP1;P2;durP2;ratioP2
3875;SDS011;1953;51.222;6.624;2023-12-28T00:04:41;5.03;;;2.83;;
3875;SDS011;1953;51.222;6.624;2023-12-28T00:09:23;6.57;;;3.23;;
3875;SDS011;1953;51.222;6.624;2023-12-28T00:14:06;4.80;;;3.20;;
3875;SDS011;1953;51.222;6.624;2023-12-28T00:20:30;4.67;;;2.90;;
3875;SDS011;1953;51.222;6.624;2023-12-28T00:25:14;5.20;;;2.80;;
3875;SDS011;1953;51.222;6.624;2023-12-28T00:29:56;6.67;;;2.87;;
3875;SDS011;1953;51.222;6.624;2023-12-28T00:34:39;5.67;;;3.30;;
3875;SDS011;1953;51.222;6.624;2023-12-28T00:39:22;5.07;;;2.27;;
3875;SDS011;1953;51.222;6.624;2023-12-28T00:44:05;6.63;;;3.80;;
3875;SDS011;1953;51.222;6.624;2023-12-28T00:48:50;6.50;;;3.23;;
3875;SDS011;1953;51.222;6.624;2023-12-28T00:53:32;8.73;;;3.47;;
3875;SDS011;1953;51.222;6.624;2023-12-28T00:58:16;5.10;;;2.80;;
3875;SDS011;1953;51.222;6.624;2023-12-28T01:02:59;5.57;;;3.20;;
3875;SDS011;1953;51.222;6.624;2023-12-28T01:07:41;5.57;;;3.33;;
3875;SDS011;1953;51.222;6.624;2023-12-28T01:12:24;6.70;;;3.33;;
3875;SDS011;1953;51.222;6.624;2023-12-28T01:17:07;5.20;;;3.23;;
3875;SDS011;1953;51.222;6.624;2023-12-28T01:21:50;5.87;;;3.40;;
3875;SDS011;1953;51.222;6.624;2023-12-28T01:26:32;5.63;;;3.23;;
3875;SDS011;1953;51.222;6.624;2023-12-28T01:31:15;5.40;;;3.37;;
3875;SDS011;1953;51.222;6.624;2023-12-28T01:35:59;5.97;;;3.17;;
3875;SDS011;1953;51.222;6.624;2023-12-28T01:40:43;6.50;;;3.50;;
3875;SDS011;1953;51.222;6.624;2023-12-28T01:45:26;5.60;;;3.20;;
3875;SDS011;1953;51.222;6.624;2023-12-28T01:50:09;6.97;;;3.63;;
3875;SDS011;1953;51.222;6.624;2023-12-28T01:54:53;6.73;;;3.70;;
3875;SDS011;1953;51.222;6.624;2023-12-28T01:59:36;5.20;;;3.10;;
3875;SDS011;1953;51.222;6.624;2023-12-28T02:04:19;9.03;;;3.73;;
3875;SDS011;1953;51.222;6.624;2023-12-28T02:09:06;6.77;;;3.40;;
3875;SDS011;1953;51.222;6.624;2023-12-28T02:13:50;6.10;;;3.50;;
3875;SDS011;1953;51.222;6.624;2023-12-28T02:18:34;6.13;;;3.40;;
3875;SDS011;1953;51.222;6.624;2023-12-28T02:23:19;6.27;;;3.63;;
3875;SDS011;1953;51.222;6.624;2023-12-28T02:28:04;6.40;;;3.50;;
3875;SDS011;1953;51.222;6.624;2023-12-28T02:32:49;7.47;;;4.07;;
3875;SDS011;1953;51.222;6.624;2023-12-28T02:37:37;5.13;;;3.23;;
3875;SDS011;1953;51.222;6.624;2023-12-28T02:42:20;7.50;;;3.77;;
3875;SDS011;1953;51.222;6.624;2023-12-28T02:47:04;6.30;;;3.60;;
3875;SDS011;1953;51.222;6.624;2023-12-28T02:51:47;9.47;;;4.10;;
3875;SDS011;1953;51.222;6.624;2023-12-28T02:56:29;11.00;;;4.10;;
3875;SDS011;1953;51.222;6.624;2023-12-28T03:01:13;6.37;;;4.20;;
3875;SDS011;1953;51.222;6.624;2023-12-28T03:05:57;5.03;;;4.00;;
3875;SDS011;1953;51.222;6.624;2023-12-28T03:10:39;7.53;;;4.50;;
3875;SDS011;1953;51.222;6.624;2023-12-28T03:15:22;7.03;;;3.97;;
3875;SDS011;1953;51.222;6.624;2023-12-28T03:20:05;6.37;;;4.30;;
3875;SDS011;1953;51.222;6.624;2023-12-28T03:24:49;6.53;;;3.70;;
3875;SDS011;1953;51.222;6.624;2023-12-28T03:29:32;7.73;;;4.47;;
3875;SDS011;1953;51.222;6.624;2023-12-28T03:34:15;5.93;;;4.27;;
3875;SDS011;1953;51.222;6.624;2023-12-28T03:38:58;6.40;;;4.30;;
3875;SDS011;1953;51.222;6.624;2023-12-28T03:43:42;8.50;;;4.30;;
3875;SDS011;1953;51.222;6.624;2023-12-28T03:48:24;7.23;;;4.03;;
3875;SDS011;1953;51.222;6.624;2023-12-28T03:53:07;6.67;;;3.70;;
3875;SDS011;1953;51.222;6.624;2023-12-28T03:57:49;8.70;;;4.10;;
3875;SDS011;1953;51.222;6.624;2023-12-28T04:02:33;6.70;;;3.73;;
3875;SDS011;1953;51.222;6.624;2023-12-28T04:07:15;8.83;;;4.60;;
3875;SDS011;1953;51.222;6.624;2023-12-28T04:11:58;5.23;;;3.53;;
3875;SDS011;1953;51.222;6.624;2023-12-28T04:16:40;6.20;;;4.03;;
3875;SDS011;1953;51.222;6.624;2023-12-28T04:21:24;5.77;;;3.50;;
3875;SDS011;1953;51.222;6.624;2023-12-28T04:26:07;6.10;;;3.60;;
3875;SDS011;1953;51.222;6.624;2023-12-28T04:30:49;8.40;;;4.10;;
3875;SDS011;1953;51.222;6.624;2023-12-28T04:35:32;5.33;;;3.70;;
3875;SDS011;1953;51.222;6.624;2023-12-28T04:40:16;10.17;;;3.57;;
3875;SDS011;1953;51.222;6.624;2023-12-28T04:44:58;7.10;;;4.10;;
3875;SDS011;1953;51.222;6.624;2023-12-28T04:49:41;8.43;;;3.70;;
3875;SDS011;1953;51.222;6.624;2023-12-28T04:54:23;10.47;;;3.83;;
3875;SDS011;1953;51.222;6.624;2023-12-28T04:59:07;11.30;;;3.87;;
3875;SDS011;1953;51.222;6.624;2023-12-28T05:03:49;7.10;;;3.40;;
3875;SDS011;1953;51.222;6.624;2023-12-28T05:08:32;6.63;;;3.33;;
3875;SDS011;1953;51.222;6.624;2023-12-28T05:13:14;8.27;;;3.23;;
3875;SDS011;1953;51.222;6.624;2023-12-28T05:17:58;6.20;;;4.00;;
3875;SDS011;1953;51.222;6.624;2023-12-28T05:22:41;6.00;;;3.60;;
3875;SDS011;1953;51.222;6.624;2023-12-28T05:27:23;8.07;;;3.10;;
3875;SDS011;1953;51.222;6.624;2023-12-28T05:32:06;11.93;;;3.60;;
3875;SDS011;1953;51.222;6.624;2023-12-28T05:36:50;5.50;;;3.43;;
3875;SDS011;1953;51.222;6.624;2023-12-28T05:41:32;7.63;;;4.43;;
3875;SDS011;1953;51.222;6.624;2023-12-28T05:46:14;9.20;;;3.80;;
3875;SDS011;1953;51.222;6.624;2023-12-28T05:50:57;6.03;;;3.63;;
3875;SDS011;1953;51.222;6.624;2023-12-28T05:55:41;7.13;;;3.67;;
3875;SDS011;1953;51.222;6.624;2023-12-28T06:00:23;7.93;;;3.60;;
3875;SDS011;1953;51.222;6.624;2023-12-28T06:05:06;11.63;;;3.63;;
3875;SDS011;1953;51.222;6.624;2023-12-28T06:09:49;6.63;;;3.27;;
3875;SDS011;1953;51.222;6.624;2023-12-28T06:14:32;6.83;;;3.50;;
3875;SDS011;1953;51.222;6.624;2023-12-28T06:19:15;8.87;;;4.20;;
3875;SDS011;1953;51.222;6.624;2023-12-28T06:23:57;7.30;;;3.20;;
3875;SDS011;1953;51.222;6.624;2023-12-28T06:28:40;7.50;;;3.03;;
3875;SDS011;1953;51.222;6.624;2023-12-28T06:33:24;6.27;;;3.53;;
3875;SDS011;1953;51.222;6.624;2023-12-28T06:38:06;6.90;;;3.30;;
3875;SDS011;1953;51.222;6.624;2023-12-28T06:42:49;8.60;;;3.23;;
3875;SDS011;1953;51.222;6.624;2023-12-28T06:47:31;10.13;;;3.23;;
3875;SDS011;1953;51.222;6.624;2023-12-28T06:52:15;9.03;;;3.20;;
3875;SDS011;1953;51.222;6.624;2023-12-28T06:56:57;6.87;;;3.10;;
3875;SDS011;1953;51.222;6.624;2023-12-28T07:01:40;6.23;;;2.80;;
3875;SDS011;1953;51.222;6.624;2023-12-28T07:06:24;6.43;;;3.60;;
3875;SDS011;1953;51.222;6.624;2023-12-28T07:11:10;7.23;;;3.40;;
3875;SDS011;1953;51.222;6.624;2023-12-28T07:15:53;6.80;;;3.20;;
3875;SDS011;1953;51.222;6.624;2023-12-28T07:20:35;10.97;;;3.53;;
3875;SDS011;1953;51.222;6.624;2023-12-28T07:25:18;6.27;;;2.93;;
3875;SDS011;1953;51.222;6.624;2023-12-28T07:30:02;8.40;;;3.23;;
3875;SDS011;1953;51.222;6.624;2023-12-28T07:34:45;8.63;;;3.20;;
3875;SDS011;1953;51.222;6.624;2023-12-28T07:39:27;7.73;;;3.37;;
3875;SDS011;1953;51.222;6.624;2023-12-28T07:44:10;7.63;;;2.83;;
3875;SDS011;1953;51.222;6.624;2023-12-28T07:48:54;8.30;;;3.30;;
3875;SDS011;1953;51.222;6.624;2023-12-28T07:53:37;14.10;;;2.87;;
3875;SDS011;1953;51.222;6.624;2023-12-28T07:58:19;10.70;;;3.17;;
3875;SDS011;1953;51.222;6.624;2023-12-28T08:03:02;8.83;;;3.60;;
3875;SDS011;1953;51.222;6.624;2023-12-28T08:07:46;5.70;;;2.50;;
3875;SDS011;1953;51.222;6.624;2023-12-28T08:12:28;8.47;;;2.67;;
3875;SDS011;1953;51.222;6.624;2023-12-28T08:17:11;5.83;;;2.73;;
3875;SDS011;1953;51.222;6.624;2023-12-28T08:21:53;6.27;;;2.40;;
3875;SDS011;1953;51.222;6.624;2023-12-28T08:26:37;14.60;;;3.30;;
3875;SDS011;1953;51.222;6.624;2023-12-28T08:31:19;7.90;;;2.90;;
3875;SDS011;1953;51.222;6.624;2023-12-28T08:36:02;9.17;;;2.50;;
3875;SDS011;1953;51.222;6.624;2023-12-28T08:40:46;12.40;;;2.70;;
3875;SDS011;1953;51.222;6.624;2023-12-28T08:45:29;7.07;;;2.70;;
3875;SDS011;1953;51.222;6.624;2023-12-28T08:50:12;10.30;;;3.33;;
3875;SDS011;1953;51.222;6.624;2023-12-28T08:54:55;9.73;;;3.03;;
3875;SDS011;1953;51.222;6.624;2023-12-28T08:59:37;8.73;;;3.13;;
3875;SDS011;1953;51.222;6.624;2023-12-28T09:04:21;9.80;;;3.23;;
3875;SDS011;1953;51.222;6.624;2023-12-28T09:09:04;9.50;;;3.43;;
3875;SDS011;1953;51.222;6.624;2023-12-28T09:13:46;13.90;;;3.03;;
3875;SDS011;1953;51.222;6.624;2023-12-28T09:18:29;8.53;;;3.00;;
3875;SDS011;1953;51.222;6.624;2023-12-28T09:23:13;7.30;;;2.50;;
3875;SDS011;1953;51.222;6.624;2023-12-28T09:27:55;13.73;;;3.03;;
3875;SDS011;1953;51.222;6.624;2023-12-28T09:32:38;12.47;;;2.97;;
3875;SDS011;1953;51.222;6.624;2023-12-28T09:37:20;10.97;;;3.87;;
3875;SDS011;1953;51.222;6.624;2023-12-28T09:42:06;10.03;;;3.00;;
3875;SDS011;1953;51.222;6.624;2023-12-28T09:46:56;11.37;;;2.63;;
3875;SDS011;1953;51.222;6.624;2023-12-28T09:51:40;10.67;;;2.90;;
3875;SDS011;1953;51.222;6.624;2023-12-28T09:56:23;7.17;;;2.53;;
3875;SDS011;1953;51.222;6.624;2023-12-28T10:01:06;5.60;;;2.60;;
3875;SDS011;1953;51.222;6.624;2023-12-28T10:05:51;7.93;;;2.50;;
3875;SDS011;1953;51.222;6.624;2023-12-28T10:10:33;9.73;;;2.70;;
3875;SDS011;1953;51.222;6.624;2023-12-28T10:15:16;8.60;;;2.67;;
3875;SDS011;1953;51.222;6.624;2023-12-28T10:20:00;6.23;;;2.63;;
3875;SDS011;1953;51.222;6.624;2023-12-28T10:24:45;18.30;;;3.20;;
3875;SDS011;1953;51.222;6.624;2023-12-28T10:29:28;9.23;;;3.20;;
3875;SDS011;1953;51.222;6.624;2023-12-28T10:34:10;9.43;;;3.00;;
3875;SDS011;1953;51.222;6.624;2023-12-28T10:38:54;9.27;;;2.40;;
3875;SDS011;1953;51.222;6.624;2023-12-28T10:43:41;18.30;;;3.65;;
3875;SDS011;1953;51.222;6.624;2023-12-28T10:48:28;12.80;;;3.20;;
3875;SDS011;1953;51.222;6.624;2023-12-28T10:53:21;15.93;;;2.87;;
3875;SDS011;1953;51.222;6.624;2023-12-28T10:58:16;13.80;;;2.60;;
3875;SDS011;1953;51.222;6.624;2023-12-28T11:03:02;10.30;;;2.13;;
3875;SDS011;1953;51.222;6.624;2023-12-28T11:07:47;13.37;;;2.57;;
3875;SDS011;1953;51.222;6.624;2023-12-28T11:12:34;8.60;;;2.50;;
3875;SDS011;1953;51.222;6.624;2023-12-28T11:17:20;12.47;;;3.17;;
3875;SDS011;1953;51.222;6.624;2023-12-28T11:22:03;9.40;;;2.70;;
3875;SDS011;1953;51.222;6.624;2023-12-28T11:26:51;9.40;;;3.23;;
3875;SDS011;1953;51.222;6.624;2023-12-28T11:31:35;10.37;;;2.70;;
3875;SDS011;1953;51.222;6.624;2023-12-28T11:36:20;9.90;;;3.40;;
3875;SDS011;1953;51.222;6.624;2023-12-28T11:41:05;8.07;;;3.00;;
3875;SDS011;1953;51.222;6.624;2023-12-28T11:45:48;17.43;;;2.97;;
3875;SDS011;1953;51.222;6.624;2023-12-28T11:50:32;13.07;;;2.93;;
3875;SDS011;1953;51.222;6.624;2023-12-28T11:55:21;8.70;;;2.00;;
3875;SDS011;1953;51.222;6.624;2023-12-28T12:00:05;8.47;;;2.43;;
3875;SDS011;1953;51.222;6.624;2023-12-28T12:04:49;9.07;;;2.20;;
3875;SDS011;1953;51.222;6.624;2023-12-28T12:09:32;6.53;;;2.10;;
3875;SDS011;1953;51.222;6.624;2023-12-28T12:14:16;7.17;;;2.10;;
3875;SDS011;1953;51.222;6.624;2023-12-28T12:21:30;14.83;;;3.10;;
3875;SDS011;1953;51.222;6.624;2023-12-28T12:26:14;9.23;;;2.40;;
3875;SDS011;1953;51.222;6.624;2023-12-28T12:31:00;12.93;;;2.37;;
3875;SDS011;1953;51.222;6.624;2023-12-28T12:35:43;18.37;;;3.30;;
3875;SDS011;1953;51.222;6.624;2023-12-28T12:40:27;16.80;;;2.87;;
3875;SDS011;1953;51.222;6.624;2023-12-28T12:45:10;9.43;;;2.40;;
3875;SDS011;1953;51.222;6.624;2023-12-28T12:49:55;8.80;;;2.03;;
3875;SDS011;1953;51.222;6.624;2023-12-28T12:54:37;11.47;;;3.00;;
3875;SDS011;1953;51.222;6.624;2023-12-28T12:59:21;9.20;;;3.20;;
3875;SDS011;1953;51.222;6.624;2023-12-28T13:04:06;6.90;;;1.90;;
3875;SDS011;1953;51.222;6.624;2023-12-28T13:08:49;8.67;;;2.20;;
3875;SDS011;1953;51.222;6.624;2023-12-28T13:13:31;10.60;;;3.10;;
3875;SDS011;1953;51.222;6.624;2023-12-28T13:18:15;8.30;;;3.00;;
3875;SDS011;1953;51.222;6.624;2023-12-28T13:22:58;12.20;;;2.70;;
3875;SDS011;1953;51.222;6.624;2023-12-28T13:27:40;9.83;;;2.60;;
3875;SDS011;1953;51.222;6.624;2023-12-28T13:32:23;6.90;;;2.30;;
3875;SDS011;1953;51.222;6.624;2023-12-28T13:37:07;7.93;;;2.27;;
3875;SDS011;1953;51.222;6.624;2023-12-28T13:41:49;9.70;;;3.00;;
3875;SDS011;1953;51.222;6.624;2023-12-28T13:46:32;9.93;;;2.53;;
3875;SDS011;1953;51.222;6.624;2023-12-28T13:51:15;7.07;;;1.90;;
3875;SDS011;1953;51.222;6.624;2023-12-28T13:55:59;13.83;;;2.30;;
3875;SDS011;1953;51.222;6.624;2023-12-28T14:00:41;7.17;;;2.37;;
3875;SDS011;1953;51.222;6.624;2023-12-28T14:05:24;11.10;;;2.93;;
3875;SDS011;1953;51.222;6.624;2023-12-28T14:10:06;10.50;;;2.53;;
3875;SDS011;1953;51.222;6.624;2023-12-28T14:14:51;7.13;;;2.47;;
3875;SDS011;1953;51.222;6.624;2023-12-28T14:19:33;12.87;;;2.80;;
3875;SDS011;1953;51.222;6.624;2023-12-28T14:24:16;9.90;;;2.03;;
3875;SDS011;1953;51.222;6.624;2023-12-28T14:28:59;11.40;;;2.83;;
3875;SDS011;1953;51.222;6.624;2023-12-28T14:33:46;8.40;;;2.53;;
3875;SDS011;1953;51.222;6.624;2023-12-28T14:38:29;15.10;;;3.00;;
3875;SDS011;1953;51.222;6.624;2023-12-28T14:43:12;12.50;;;2.97;;
3875;SDS011;1953;51.222;6.624;2023-12-28T14:47:54;7.60;;;2.67;;
3875;SDS011;1953;51.222;6.624;2023-12-28T14:52:38;13.30;;;2.77;;
3875;SDS011;1953;51.222;6.624;2023-12-28T14:57:23;11.40;;;2.83;;
3875;SDS011;1953;51.222;6.624;2023-12-28T15:02:05;8.67;;;2.83;;
3875;SDS011;1953;51.222;6.624;2023-12-28T15:06:48;12.83;;;2.77;;
3875;SDS011;1953;51.222;6.624;2023-12-28T15:11:32;8.37;;;2.70;;
3875;SDS011;1953;51.222;6.624;2023-12-28T15:16:15;9.03;;;2.60;;
3875;SDS011;1953;51.222;6.624;2023-12-28T15:20:58;14.43;;;2.73;;
3875;SDS011;1953;51.222;6.624;2023-12-28T15:25:42;10.60;;;3.07;;
3875;SDS011;1953;51.222;6.624;2023-12-28T15:30:26;8.77;;;3.17;;
3875;SDS011;1953;51.222;6.624;2023-12-28T15:35:11;7.43;;;2.30;;
3875;SDS011;1953;51.222;6.624;2023-12-28T15:39:54;7.70;;;2.40;;
3875;SDS011;1953;51.222;6.624;2023-12-28T15:44:37;7.53;;;2.73;;
3875;SDS011;1953;51.222;6.624;2023-12-28T15:49:21;7.10;;;2.33;;
3875;SDS011;1953;51.222;6.624;2023-12-28T15:54:03;14.47;;;3.03;;
3875;SDS011;1953;51.222;6.624;2023-12-28T15:58:46;10.40;;;2.80;;
3875;SDS011;1953;51.222;6.624;2023-12-28T16:03:29;8.50;;;3.50;;
3875;SDS011;1953;51.222;6.624;2023-12-28T16:08:13;10.23;;;3.10;;
3875;SDS011;1953;51.222;6.624;2023-12-28T16:12:55;7.50;;;2.50;;
3875;SDS011;1953;51.222;6.624;2023-12-28T16:17:38;5.80;;;2.70;;
3875;SDS011;1953;51.222;6.624;2023-12-28T16:22:21;10.33;;;3.03;;
3875;SDS011;1953;51.222;6.624;2023-12-28T16:27:05;6.97;;;2.77;;
3875;SDS011;1953;51.222;6.624;2023-12-28T16:31:48;9.40;;;2.97;;
3875;SDS011;1953;51.222;6.624;2023-12-28T16:36:31;12.10;;;3.63;;
3875;SDS011;1953;51.222;6.624;2023-12-28T16:41:13;9.23;;;2.70;;
3875;SDS011;1953;51.222;6.624;2023-12-28T16:45:57;6.47;;;2.03;;
3875;SDS011;1953;51.222;6.624;2023-12-28T16:50:42;13.50;;;3.00;;
3875;SDS011;1953;51.222;6.624;2023-12-28T16:55:24;7.23;;;3.30;;
3875;SDS011;1953;51.222;6.624;2023-12-28T17:00:07;8.30;;;2.70;;
3875;SDS011;1953;51.222;6.624;2023-12-28T17:04:53;8.97;;;3.00;;
3875;SDS011;1953;51.222;6.624;2023-12-28T17:09:35;8.57;;;3.20;;
3875;SDS011;1953;51.222;6.624;2023-12-28T17:14:18;7.67;;;2.50;;
3875;SDS011;1953;51.222;6.624;2023-12-28T17:19:01;7.70;;;2.10;;
3875;SDS011;1953;51.222;6.624;2023-12-28T17:23:46;8.13;;;2.77;;
3875;SDS011;1953;51.222;6.624;2023-12-28T17:28:33;10.73;;;3.00;;
3875;SDS011;1953;51.222;6.624;2023-12-28T17:33:22;8.27;;;2.03;;
3875;SDS011;1953;51.222;6.624;2023-12-28T17:38:06;11.37;;;2.90;;
3875;SDS011;1953;51.222;6.624;2023-12-28T17:42:52;6.83;;;2.60;;
3875;SDS011;1953;51.222;6.624;2023-12-28T17:47:36;8.53;;;3.40;;
3875;SDS011;1953;51.222;6.624;2023-12-28T17:52:26;4.77;;;2.87;;
3875;SDS011;1953;51.222;6.624;2023-12-28T17:57:10;7.10;;;2.80;;
3875;SDS011;1953;51.222;6.624;2023-12-28T18:01:54;6.90;;;2.50;;
3875;SDS011;1953;51.222;6.624;2023-12-28T18:06:37;7.10;;;3.23;;
3875;SDS011;1953;51.222;6.624;2023-12-28T18:11:20;6.23;;;2.73;;
3875;SDS011;1953;51.222;6.624;2023-12-28T18:16:03;8.10;;;2.77;;
3875;SDS011;1953;51.222;6.624;2023-12-28T18:20:47;10.00;;;3.03;;
3875;SDS011;1953;51.222;6.624;2023-12-28T18:25:32;10.33;;;3.90;;
3875;SDS011;1953;51.222;6.624;2023-12-28T18:30:15;8.60;;;3.13;;
3875;SDS011;1953;51.222;6.624;2023-12-28T18:34:57;11.97;;;3.40;;
3875;SDS011;1953;51.222;6.624;2023-12-28T18:39:41;10.83;;;3.40;;
3875;SDS011;1953;51.222;6.624;2023-12-28T18:44:24;6.97;;;2.53;;
3875;SDS011;1953;51.222;6.624;2023-12-28T18:49:13;11.90;;;3.50;;
3875;SDS011;1953;51.222;6.624;2023-12-28T18:53:55;10.80;;;3.73;;
3875;SDS011;1953;51.222;6.624;2023-12-28T18:58:39;9.03;;;3.50;;
3875;SDS011;1953;51.222;6.624;2023-12-28T19:03:22;9.10;;;2.97;;
3875;SDS011;1953;51.222;6.624;2023-12-28T19:08:08;9.00;;;3.20;;
3875;SDS011;1953;51.222;6.624;2023-12-28T19:12:51;12.80;;;3.63;;
3875;SDS011;1953;51.222;6.624;2023-12-28T19:17:35;8.43;;;3.20;;
3875;SDS011;1953;51.222;6.624;2023-12-28T19:22:18;10.97;;;4.23;;
3875;SDS011;1953;51.222;6.624;2023-12-28T19:27:01;9.20;;;3.67;;
3875;SDS011;1953;51.222;6.624;2023-12-28T19:31:44;7.23;;;3.80;;
3875;SDS011;1953;51.222;6.624;2023-12-28T19:36:28;10.03;;;3.60;;
3875;SDS011;1953;51.222;6.624;2023-12-28T19:41:10;14.70;;;3.23;;
3875;SDS011;1953;51.222;6.624;2023-12-28T19:45:53;6.40;;;2.73;;
3875;SDS011;1953;51.222;6.624;2023-12-28T19:50:35;10.63;;;3.83;;
3875;SDS011;1953;51.222;6.624;2023-12-28T19:55:21;8.10;;;3.63;;
3875;SDS011;1953;51.222;6.624;2023-12-28T20:00:05;7.63;;;3.43;;
3875;SDS011;1953;51.222;6.624;2023-12-28T20:04:51;6.30;;;3.00;;
3875;SDS011;1953;51.222;6.624;2023-12-28T20:09:36;7.40;;;3.63;;
3875;SDS011;1953;51.222;6.624;2023-12-28T20:14:20;7.70;;;3.20;;
3875;SDS011;1953;51.222;6.624;2023-12-28T20:19:02;9.30;;;3.20;;
3875;SDS011;1953;51.222;6.624;2023-12-28T20:23:45;8.83;;;3.10;;
3875;SDS011;1953;51.222;6.624;2023-12-28T20:28:27;9.23;;;3.50;;
3875;SDS011;1953;51.222;6.624;2023-12-28T20:33:11;8.73;;;3.43;;
3875;SDS011;1953;51.222;6.624;2023-12-28T20:37:54;11.17;;;3.77;;
3875;SDS011;1953;51.222;6.624;2023-12-28T20:42:36;10.03;;;3.50;;
3875;SDS011;1953;51.222;6.624;2023-12-28T20:47:19;7.90;;;2.87;;
3875;SDS011;1953;51.222;6.624;2023-12-28T20:52:03;9.20;;;2.93;;
3875;SDS011;1953;51.222;6.624;2023-12-28T20:56:46;10.70;;;3.10;;
3875;SDS011;1953;51.222;6.624;2023-12-28T21:01:28;10.23;;;2.43;;
3875;SDS011;1953;51.222;6.624;2023-12-28T21:06:10;6.90;;;2.57;;
3875;SDS011;1953;51.222;6.624;2023-12-28T21:10:54;8.43;;;3.10;;
3875;SDS011;1953;51.222;6.624;2023-12-28T21:15:38;8.07;;;2.60;;
3875;SDS011;1953;51.222;6.624;2023-12-28T21:20:21;7.73;;;2.67;;
3875;SDS011;1953;51.222;6.624;2023-12-28T21:25:03;5.67;;;2.33;;
3875;SDS011;1953;51.222;6.624;2023-12-28T21:29:49;10.53;;;2.70;;
3875;SDS011;1953;51.222;6.624;2023-12-28T21:34:33;7.30;;;2.93;;
3875;SDS011;1953;51.222;6.624;2023-12-28T21:39:18;8.77;;;3.00;;
3875;SDS011;1953;51.222;6.624;2023-12-28T21:44:00;7.47;;;2.43;;
3875;SDS011;1953;51.222;6.624;2023-12-28T21:48:44;8.13;;;2.73;;
3875;SDS011;1953;51.222;6.624;2023-12-28T21:53:27;8.00;;;2.33;;
3875;SDS011;1953;51.222;6.624;2023-12-28T21:58:09;10.03;;;2.30;;
3875;SDS011;1953;51.222;6.624;2023-12-28T22:02:52;11.67;;;2.57;;
3875;SDS011;1953;51.222;6.624;2023-12-28T22:07:36;8.00;;;2.30;;
3875;SDS011;1953;51.222;6.624;2023-12-28T22:12:19;8.23;;;3.33;;
3875;SDS011;1953;51.222;6.624;2023-12-28T22:17:01;6.83;;;2.00;;
3875;SDS011;1953;51.222;6.624;2023-12-28T22:21:44;4.40;;;1.80;;
3875;SDS011;1953;51.222;6.624;2023-12-28T22:26:28;8.60;;;1.73;;
3875;SDS011;1953;51.222;6.624;2023-12-28T22:31:10;6.90;;;2.00;;
3875;SDS011;1953;51.222;6.624;2023-12-28T22:35:53;7.97;;;1.80;;
3875;SDS011;1953;51.222;6.624;2023-12-28T22:40:35;6.00;;;2.20;;
3875;SDS011;1953;51.222;6.624;2023-12-28T22:45:19;10.00;;;2.50;;
3875;SDS011;1953;51.222;6.624;2023-12-28T22:50:02;8.80;;;2.13;;
3875;SDS011;1953;51.222;6.624;2023-12-28T22:54:46;6.30;;;2.10;;
3875;SDS011;1953;51.222;6.624;2023-12-28T22:59:28;13.13;;;2.43;;
3875;SDS011;1953;51.222;6.624;2023-12-28T23:04:12;8.73;;;2.30;;
3875;SDS011;1953;51.222;6.624;2023-12-28T23:08:55;10.33;;;1.63;;
3875;SDS011;1953;51.222;6.624;2023-12-28T23:13:37;7.97;;;2.00;;
3875;SDS011;1953;51.222;6.624;2023-12-28T23:18:19;7.87;;;2.10;;
3875;SDS011;1953;51.222;6.624;2023-12-28T23:23:03;7.43;;;2.10;;
3875;SDS011;1953;51.222;6.624;2023-12-28T23:27:46;10.53;;;2.50;;
3875;SDS011;1953;51.222;6.624;2023-12-28T23:32:29;6.63;;;1.70;;
3875;SDS011;1953;51.222;6.624;2023-12-28T23:37:12;5.13;;;1.87;;
3875;SDS011;1953;51.222;6.624;2023-12-28T23:41:56;9.60;;;2.07;;
3875;SDS011;1953;51.222;6.624;2023-12-28T23:46:38;4.17;;;1.93;;
3875;SDS011;1953;51.222;6.624;2023-12-28T23:51:21;9.63;;;1.83;;
3875;SDS011;1953;51.222;6.624;2023-12-28T23:56:03;10.07;;;2.43;;
